createdAt,value
2018-12-16T00:00:43.727Z,25.23
2018-12-16T00:03:47.328Z,21.03
2018-12-16T00:06:51.162Z,24.50
2018-12-16T00:09:55.038Z,23.47
2018-12-16T00:12:58.716Z,22.90
2018-12-16T00:16:02.377Z,23.77
2018-12-16T00:19:08.091Z,24.83
2018-12-16T00:22:12.727Z,26.63
2018-12-16T00:25:18.413Z,21.43
2018-12-16T00:28:22.094Z,25.23
2018-12-16T00:31:26.656Z,23.07
2018-12-16T00:34:30.269Z,22.43
2018-12-16T00:37:34.923Z,22.17
2018-12-16T00:40:38.624Z,23.30
2018-12-16T00:43:42.503Z,22.17
2018-12-16T00:46:47.043Z,23.27
2018-12-16T00:49:50.817Z,23.60
2018-12-16T00:52:54.324Z,24.43
2018-12-16T00:55:58.071Z,22.83
2018-12-16T00:59:01.591Z,22.13
2018-12-16T01:02:05.456Z,23.63
2018-12-16T01:05:09.163Z,22.73
2018-12-16T01:08:12.811Z,23.60
2018-12-16T01:11:16.887Z,24.90
2018-12-16T01:14:20.481Z,23.50
2018-12-16T01:17:23.921Z,24.03
2018-12-16T01:20:27.591Z,22.20
2018-12-16T01:23:34.600Z,23.50
2018-12-16T01:26:38.205Z,22.83
2018-12-16T01:29:48.261Z,24.10
2018-12-16T01:32:52.867Z,22.93
2018-12-16T01:35:56.505Z,27.10
2018-12-16T01:39:00.120Z,21.43
2018-12-16T01:42:03.834Z,24.47
2018-12-16T01:45:07.476Z,24.13
2018-12-16T01:48:11.045Z,25.23
2018-12-16T01:51:14.637Z,22.90
2018-12-16T01:54:18.337Z,23.63
2018-12-16T01:57:21.897Z,23.13
2018-12-16T02:00:25.455Z,24.37
2018-12-16T02:03:29.147Z,26.27
2018-12-16T02:06:32.860Z,26.03
2018-12-16T02:09:36.585Z,24.33
2018-12-16T02:12:40.129Z,24.40
2018-12-16T02:15:43.707Z,25.97
2018-12-16T02:18:47.195Z,23.93
2018-12-16T02:21:50.683Z,25.20
2018-12-16T02:24:54.271Z,28.47
2018-12-16T02:27:58.144Z,25.63
2018-12-16T02:31:01.752Z,22.90
2018-12-16T02:34:05.247Z,27.63
2018-12-16T02:37:08.827Z,23.33
2018-12-16T02:40:12.374Z,23.40
2018-12-16T02:43:15.973Z,23.57
2018-12-16T02:46:19.574Z,22.63
2018-12-16T02:49:23.076Z,22.87
2018-12-16T02:52:26.619Z,23.57
2018-12-16T02:55:30.133Z,25.67
2018-12-16T02:58:33.723Z,25.40
2018-12-16T03:01:37.435Z,26.67
2018-12-16T03:04:40.955Z,25.47
2018-12-16T03:07:44.468Z,23.67
2018-12-16T03:10:47.957Z,25.33
2018-12-16T03:13:51.606Z,25.10
2018-12-16T03:16:55.134Z,27.00
2018-12-16T03:19:58.688Z,24.00
2018-12-16T03:23:02.358Z,24.83
2018-12-16T03:26:05.944Z,24.53
2018-12-16T03:29:09.378Z,24.30
2018-12-16T03:32:12.882Z,24.00
2018-12-16T03:35:16.801Z,25.20
2018-12-16T03:38:20.465Z,23.70
2018-12-16T03:41:23.985Z,24.93
2018-12-16T03:44:27.490Z,26.00
2018-12-16T03:47:31.104Z,23.67
2018-12-16T03:50:34.772Z,24.57
2018-12-16T03:53:38.321Z,22.43
2018-12-16T03:56:41.882Z,25.13
2018-12-16T03:59:45.388Z,24.83
2018-12-16T04:02:48.836Z,25.67
2018-12-16T04:05:52.369Z,27.67
2018-12-16T04:08:55.916Z,24.27
2018-12-16T04:11:59.497Z,24.93
2018-12-16T04:15:03.047Z,25.00
2018-12-16T04:18:06.732Z,25.93
2018-12-16T04:21:10.394Z,27.40
2018-12-16T04:24:13.852Z,28.77
2018-12-16T04:27:17.442Z,28.20
2018-12-16T04:30:20.909Z,33.00
2018-12-16T04:33:24.550Z,24.57
2018-12-16T04:36:28.118Z,27.77
2018-12-16T04:39:31.904Z,32.10
2018-12-16T04:42:35.545Z,30.07
2018-12-16T04:45:39.137Z,28.10
2018-12-16T04:48:42.664Z,30.33
2018-12-16T04:51:46.152Z,27.37
2018-12-16T04:54:49.635Z,28.50
2018-12-16T04:57:53.164Z,27.60
2018-12-16T05:00:56.582Z,32.27
2018-12-16T05:04:00.005Z,32.07
2018-12-16T05:07:04.680Z,31.27
2018-12-16T05:10:19.375Z,28.77
2018-12-16T05:13:22.881Z,30.40
2018-12-16T05:16:26.421Z,30.67
2018-12-16T05:19:29.950Z,31.03
2018-12-16T05:22:33.535Z,31.77
2018-12-16T05:25:37.159Z,34.60
2018-12-16T05:28:40.781Z,31.23
2018-12-16T05:31:44.355Z,34.70
2018-12-16T05:34:47.927Z,35.63
2018-12-16T05:37:51.409Z,34.37
2018-12-16T05:40:54.880Z,33.77
2018-12-16T05:43:58.447Z,34.07
2018-12-16T05:47:01.931Z,33.87
2018-12-16T05:50:06.443Z,33.17
2018-12-16T05:53:10.624Z,34.00
2018-12-16T05:56:15.538Z,35.50
2018-12-16T05:59:19.148Z,36.97
2018-12-16T06:02:22.742Z,33.13
2018-12-16T06:05:28.170Z,33.53
2018-12-16T06:08:31.762Z,33.73
2018-12-16T06:11:35.326Z,35.13
2018-12-16T06:14:38.864Z,31.50
2018-12-16T06:17:42.316Z,34.03
2018-12-16T06:20:46.770Z,35.80
2018-12-16T06:23:55.473Z,32.53
2018-12-16T06:26:53.989Z,32.47
2018-12-16T06:29:57.564Z,34.17
2018-12-16T06:33:01.155Z,34.10
2018-12-16T06:36:04.645Z,34.93
2018-12-16T06:39:08.101Z,33.47
2018-12-16T06:42:11.915Z,34.83
2018-12-16T06:45:15.436Z,30.37
2018-12-16T06:48:18.994Z,30.07
2018-12-16T06:51:22.507Z,33.13
2018-12-16T06:54:26.239Z,32.50
2018-12-16T06:57:29.686Z,34.30
2018-12-16T07:00:33.046Z,34.83
2018-12-16T07:03:37.155Z,33.17
2018-12-16T07:06:40.706Z,30.77
2018-12-16T07:09:44.337Z,29.50
2018-12-16T07:12:47.973Z,33.03
2018-12-16T07:15:51.537Z,31.23
2018-12-16T07:18:55.726Z,32.67
2018-12-16T07:21:59.272Z,31.57
2018-12-16T07:25:03.070Z,34.70
2018-12-16T07:28:06.801Z,31.93
2018-12-16T07:31:10.436Z,36.17
2018-12-16T07:34:14.126Z,34.27
2018-12-16T07:37:19.192Z,31.10
2018-12-16T07:40:22.012Z,33.80
2018-12-16T07:43:25.740Z,30.13
2018-12-16T07:46:29.672Z,31.17
2018-12-16T07:49:33.327Z,32.80
2018-12-16T07:52:37.167Z,34.00
2018-12-16T07:55:40.898Z,35.23
2018-12-16T07:58:44.683Z,31.97
2018-12-16T08:01:48.305Z,35.13
2018-12-16T08:04:51.903Z,30.17
2018-12-16T08:07:55.554Z,34.93
2018-12-16T08:10:59.070Z,34.33
2018-12-16T08:14:02.644Z,33.53
2018-12-16T08:17:06.413Z,34.10
2018-12-16T08:20:10.197Z,34.53
2018-12-16T08:23:13.699Z,33.97
2018-12-16T08:26:17.304Z,31.70
2018-12-16T08:29:20.931Z,33.93
2018-12-16T08:32:24.412Z,32.67
2018-12-16T08:35:28.073Z,34.07
2018-12-16T08:38:31.622Z,35.67
2018-12-16T08:41:35.404Z,38.50
2018-12-16T08:44:39.029Z,33.27
2018-12-16T08:47:42.532Z,34.17
2018-12-16T08:50:46.112Z,33.03
2018-12-16T08:53:50.153Z,35.80
2018-12-16T08:56:56.091Z,37.17
2018-12-16T08:59:59.561Z,35.67
2018-12-16T09:03:03.187Z,33.77
2018-12-16T09:06:06.721Z,35.23
2018-12-16T09:09:10.365Z,35.77
2018-12-16T09:12:13.916Z,37.10
2018-12-16T09:15:17.546Z,30.63
2018-12-16T09:18:22.122Z,36.50
2018-12-16T09:21:25.795Z,33.17
2018-12-16T09:24:29.484Z,36.87
2018-12-16T09:27:33.047Z,38.70
2018-12-16T09:30:36.543Z,35.40
2018-12-16T09:33:40.134Z,36.83
2018-12-16T09:36:43.716Z,38.67
2018-12-16T09:39:47.293Z,34.97
2018-12-16T09:42:50.948Z,35.97
2018-12-16T09:45:54.557Z,35.73
2018-12-16T09:48:58.059Z,35.63
2018-12-16T09:52:01.692Z,36.23
2018-12-16T09:55:06.552Z,33.37
2018-12-16T09:58:10.366Z,34.37
2018-12-16T10:01:13.990Z,33.53
2018-12-16T10:04:17.366Z,36.30
2018-12-16T10:07:21.002Z,35.77
2018-12-16T10:10:24.472Z,35.90
2018-12-16T10:13:27.975Z,36.40
2018-12-16T10:16:32.710Z,31.13
2018-12-16T10:19:36.180Z,32.83
2018-12-16T10:22:40.530Z,31.30
2018-12-16T10:25:45.162Z,32.43
2018-12-16T10:28:48.767Z,30.57
2018-12-16T10:31:52.365Z,34.20
2018-12-16T10:34:56.002Z,35.00
2018-12-16T10:37:59.758Z,33.17
2018-12-16T10:41:03.620Z,37.57
2018-12-16T10:44:07.211Z,32.03
2018-12-16T10:47:10.744Z,30.67
2018-12-16T10:50:14.416Z,39.80
2018-12-16T10:53:17.961Z,35.67
2018-12-16T10:56:22.883Z,34.83
2018-12-16T10:59:26.741Z,36.63
2018-12-16T11:02:36.258Z,34.63
2018-12-16T11:05:41.199Z,33.57
2018-12-16T11:08:46.728Z,34.60
2018-12-16T11:11:52.272Z,38.57
2018-12-16T11:15:00.589Z,36.97
2018-12-16T11:18:16.175Z,37.73
2018-12-16T11:21:22.740Z,36.77
2018-12-16T11:24:27.755Z,38.57
2018-12-16T11:27:34.336Z,36.23
2018-12-16T11:30:42.887Z,34.93
2018-12-16T11:33:51.458Z,36.40
2018-12-16T11:37:00.436Z,36.20
2018-12-16T11:40:09.884Z,36.70
2018-12-16T11:43:17.486Z,37.93
2018-12-16T11:46:25.829Z,41.07
2018-12-16T11:49:35.787Z,42.97
2018-12-16T11:52:45.950Z,38.83
2018-12-16T11:55:54.907Z,36.93
2018-12-16T11:59:05.615Z,40.90
2018-12-16T12:05:57.981Z,37.47
2018-12-16T12:09:01.715Z,42.20
2018-12-16T12:12:05.530Z,41.20
2018-12-16T12:15:09.228Z,44.00
2018-12-16T12:18:12.669Z,38.77
2018-12-16T12:21:16.274Z,39.63
2018-12-16T12:24:19.915Z,40.67
2018-12-16T12:27:23.500Z,38.00
2018-12-16T12:30:27.184Z,38.83
2018-12-16T12:33:30.747Z,40.70
2018-12-16T12:36:34.256Z,38.13
2018-12-16T12:39:37.862Z,40.63
2018-12-16T12:42:41.777Z,41.60
2018-12-16T12:45:45.437Z,43.23
2018-12-16T12:48:48.973Z,44.80
2018-12-16T12:51:52.548Z,44.27
2018-12-16T12:54:56.224Z,47.37
2018-12-16T12:58:00.146Z,42.47
2018-12-16T13:01:03.678Z,46.53
2018-12-16T13:04:07.278Z,44.00
2018-12-16T13:07:10.709Z,47.13
2018-12-16T13:10:14.334Z,42.17
2018-12-16T13:13:19.107Z,40.47
2018-12-16T13:16:22.770Z,52.00
2018-12-16T13:19:26.497Z,47.03
2018-12-16T13:22:30.133Z,47.37
2018-12-16T13:25:45.147Z,49.47
2018-12-16T13:28:49.256Z,49.13
2018-12-16T13:31:53.938Z,51.87
2018-12-16T13:34:57.563Z,50.13
2018-12-16T13:38:01.280Z,49.00
2018-12-16T13:41:05.184Z,55.77
2018-12-16T13:44:09.053Z,45.27
2018-12-16T13:47:12.415Z,46.80
2018-12-16T13:50:17.999Z,46.57
2018-12-16T13:53:21.440Z,43.00
2018-12-16T13:56:25.057Z,51.20
2018-12-16T13:59:28.811Z,50.60
2018-12-16T14:02:32.401Z,51.50
2018-12-16T14:05:36.028Z,60.30
2018-12-16T14:08:39.646Z,51.87
2018-12-16T14:11:45.097Z,54.07
2018-12-16T14:14:48.702Z,55.67
2018-12-16T14:17:52.544Z,53.90
2018-12-16T14:20:56.161Z,54.77
2018-12-16T14:24:00.813Z,52.43
2018-12-16T14:27:04.433Z,51.70
2018-12-16T14:30:10.932Z,51.30
2018-12-16T14:33:14.461Z,51.83
2018-12-16T14:36:18.845Z,47.47
2018-12-16T14:39:23.955Z,46.50
2018-12-16T14:42:27.598Z,48.20
2018-12-16T14:45:36.776Z,50.37
2018-12-16T14:48:41.423Z,49.83
2018-12-16T14:51:45.005Z,53.30
2018-12-16T14:54:48.644Z,49.47
2018-12-16T14:57:52.663Z,52.17
2018-12-16T15:00:56.258Z,53.83
2018-12-16T15:03:59.901Z,52.67
2018-12-16T15:07:03.528Z,61.40
2018-12-16T15:10:10.642Z,56.20
2018-12-16T15:13:14.117Z,59.67
2018-12-16T15:16:17.571Z,70.07
2018-12-16T15:19:21.155Z,66.63
2018-12-16T15:22:24.771Z,60.77
2018-12-16T15:25:28.426Z,60.47
2018-12-16T15:28:32.013Z,64.17
2018-12-16T15:31:35.623Z,71.67
2018-12-16T15:34:39.266Z,63.37
2018-12-16T15:37:42.797Z,66.63
2018-12-16T15:40:46.566Z,64.23
2018-12-16T15:43:50.316Z,60.33
2018-12-16T15:46:54.516Z,61.83
2018-12-16T15:49:58.201Z,58.33
2018-12-16T15:53:01.782Z,65.40
2018-12-16T15:56:09.320Z,63.10
2018-12-16T15:59:09.291Z,56.87
2018-12-16T16:02:12.857Z,63.70
2018-12-16T16:05:16.333Z,57.40
2018-12-16T16:08:20.127Z,64.90
2018-12-16T16:11:23.637Z,63.13
2018-12-16T16:14:27.077Z,64.73
2018-12-16T16:17:30.682Z,58.30
2018-12-16T16:20:34.240Z,55.83
2018-12-16T16:23:38.038Z,61.17
2018-12-16T16:26:41.540Z,55.67
2018-12-16T16:29:45.880Z,57.97
2018-12-16T16:32:49.525Z,55.87
2018-12-16T16:35:54.002Z,58.47
2018-12-16T16:38:58.023Z,59.43
2018-12-16T16:42:01.831Z,63.13
2018-12-16T16:45:06.582Z,62.87
2018-12-16T16:48:10.268Z,61.77
2018-12-16T16:51:13.870Z,62.67
2018-12-16T16:54:17.557Z,58.67
2018-12-16T16:57:22.390Z,61.53
2018-12-16T17:00:26.139Z,67.10
2018-12-16T17:03:30.241Z,62.40
2018-12-16T17:06:34.054Z,52.23
2018-12-16T17:09:39.618Z,58.03
2018-12-16T17:12:43.147Z,61.77
2018-12-16T17:15:46.605Z,60.77
2018-12-16T17:18:50.213Z,62.63
2018-12-16T17:21:53.981Z,56.67
2018-12-16T17:24:57.456Z,62.50
2018-12-16T17:28:00.992Z,74.13
2018-12-16T17:31:04.414Z,76.57
2018-12-16T17:34:08.065Z,73.53
2018-12-16T17:37:12.852Z,63.17
2018-12-16T17:40:16.498Z,63.00
2018-12-16T17:43:20.112Z,67.17
2018-12-16T17:46:23.811Z,64.37
2018-12-16T17:49:27.346Z,66.40
2018-12-16T17:52:31.061Z,65.57
2018-12-16T17:55:34.600Z,62.23
2018-12-16T17:58:38.165Z,61.27
2018-12-16T18:01:41.669Z,58.27
2018-12-16T18:04:45.304Z,58.60
2018-12-16T18:07:48.948Z,61.43
2018-12-16T18:10:53.545Z,60.50
2018-12-16T18:13:57.218Z,56.73
2018-12-16T18:17:00.982Z,61.13
2018-12-16T18:20:05.790Z,63.03
2018-12-16T18:23:09.347Z,61.83
2018-12-16T18:26:12.920Z,67.23
2018-12-16T18:29:16.809Z,64.73
2018-12-16T18:32:20.665Z,61.57
2018-12-16T18:35:24.228Z,66.27
2018-12-16T18:38:27.931Z,62.20
2018-12-16T18:41:31.475Z,55.10
2018-12-16T18:44:35.145Z,60.50
2018-12-16T18:47:38.747Z,60.00
2018-12-16T18:50:42.425Z,54.10
2018-12-16T18:53:45.980Z,59.63
2018-12-16T18:56:51.300Z,67.80
2018-12-16T18:59:53.333Z,57.80
2018-12-16T19:02:57.011Z,58.27
2018-12-16T19:06:00.737Z,54.33
2018-12-16T19:09:05.307Z,62.70
2018-12-16T19:12:09.038Z,64.10
2018-12-16T19:15:12.676Z,62.50
2018-12-16T19:18:16.259Z,57.63
2018-12-16T19:21:19.884Z,62.20
2018-12-16T19:24:23.722Z,65.47
2018-12-16T19:27:27.266Z,61.90
2018-12-16T19:30:30.895Z,57.80
2018-12-16T19:33:34.748Z,63.63
2018-12-16T19:36:38.184Z,65.23
2018-12-16T19:39:41.960Z,61.27
2018-12-16T19:42:45.398Z,59.17
2018-12-16T19:45:49.029Z,61.40
2018-12-16T19:48:52.510Z,57.57
2018-12-16T19:51:56.129Z,61.37
2018-12-16T19:54:59.769Z,56.77
2018-12-16T19:58:03.218Z,56.70
2018-12-16T20:01:07.003Z,55.93
2018-12-16T20:04:15.625Z,54.67
2018-12-16T20:07:20.240Z,52.67
2018-12-16T20:10:23.868Z,53.50
2018-12-16T20:13:27.446Z,54.77
2018-12-16T20:16:31.108Z,54.10
2018-12-16T20:19:34.828Z,52.97
2018-12-16T20:22:38.602Z,54.00
2018-12-16T20:25:42.185Z,53.70
2018-12-16T20:28:45.621Z,50.50
2018-12-16T20:31:49.172Z,54.73
2018-12-16T20:34:53.686Z,56.57
2018-12-16T20:37:57.325Z,48.47
2018-12-16T20:41:00.875Z,48.93
2018-12-16T20:44:04.419Z,51.87
2018-12-16T20:47:08.017Z,53.60
2018-12-16T20:50:11.521Z,55.07
2018-12-16T20:53:15.227Z,51.57
2018-12-16T20:56:18.846Z,47.33
2018-12-16T20:59:23.304Z,53.10
2018-12-16T21:02:26.831Z,51.77
2018-12-16T21:05:30.409Z,50.30
2018-12-16T21:08:34.109Z,48.00
2018-12-16T21:11:42.944Z,49.83
2018-12-16T21:14:51.877Z,46.90
2018-12-16T21:18:00.724Z,46.90
2018-12-16T21:21:04.382Z,41.73
2018-12-16T21:24:07.920Z,45.63
2018-12-16T21:27:11.398Z,43.00
2018-12-16T21:30:14.872Z,42.30
2018-12-16T21:33:18.761Z,42.10
2018-12-16T21:36:22.266Z,37.00
2018-12-16T21:39:25.876Z,43.50
2018-12-16T21:42:29.447Z,40.93
2018-12-16T21:45:34.380Z,39.33
2018-12-16T21:48:38.175Z,36.87
2018-12-16T21:51:41.870Z,37.50
2018-12-16T21:54:45.449Z,37.70
2018-12-16T21:57:49.019Z,37.57
2018-12-16T22:00:52.851Z,37.63
2018-12-16T22:03:56.536Z,42.13
2018-12-16T22:07:00.103Z,38.50
2018-12-16T22:10:03.819Z,39.00
2018-12-16T22:13:07.414Z,40.50
2018-12-16T22:16:11.005Z,37.27
2018-12-16T22:19:14.604Z,36.57
2018-12-16T22:22:18.188Z,36.53
2018-12-16T22:25:21.838Z,34.10
2018-12-16T22:28:25.431Z,35.93
2018-12-16T22:31:29.051Z,34.87
2018-12-16T22:34:32.750Z,34.40
2018-12-16T22:37:36.416Z,38.13
2018-12-16T22:40:40.685Z,35.33
2018-12-16T22:43:43.970Z,34.80
2018-12-16T22:46:47.769Z,39.10
2018-12-16T22:49:51.293Z,41.57
2018-12-16T22:52:54.856Z,43.03
2018-12-16T22:55:58.556Z,39.60
2018-12-16T22:59:02.166Z,45.20
2018-12-16T23:02:05.757Z,37.50
2018-12-16T23:05:09.308Z,41.97
2018-12-16T23:08:12.767Z,39.33
2018-12-16T23:11:16.465Z,39.73
2018-12-16T23:14:20.109Z,35.87
2018-12-16T23:17:23.742Z,36.53
2018-12-16T23:20:29.499Z,37.23
2018-12-16T23:23:33.010Z,36.33
2018-12-16T23:26:36.836Z,35.87
2018-12-16T23:29:40.338Z,40.20
2018-12-16T23:32:43.854Z,36.17
2018-12-16T23:35:48.687Z,35.67
2018-12-16T23:38:52.192Z,36.10
2018-12-16T23:41:55.754Z,37.87
2018-12-16T23:44:59.203Z,35.27
2018-12-16T23:48:02.752Z,37.33
2018-12-16T23:51:06.335Z,36.87
2018-12-16T23:54:10.064Z,34.73
2018-12-16T23:57:15.807Z,37.73
